Latest Weather Observations for Curtin

IDW60801

Issued at 12:08 pm WST Thursday 30 July 2015 (issued every 30 minutes, with the page automatically refreshed every 10 minutes)

About weather observations | Map of weather stations | Latest weather observations for WA | Other Formats
Station Details ID: 003080 Name: CURTIN AERO Lat: -17.58 Lon: 123.83 Height: 77.5 m
Data from the previous 72 hours. | See also: Recent months at Curtin
Date/Time
WST
Temp
°C
App
Temp
°C
Dew
Point
Rel
Hum
%
Delta-T
°C
Wind Press
QNH
hPa
Press
MSL
hPa
Rain
since 9 am
mm
Dir
 
Spd
km/h
Gust
km/h
Spd
kts
Gust
kts
30/12:00pm 31.4 27.2 5.8 20 13.6 NE 17 26 9 14 1016.8 1016.5 0.0
30/11:30am 30.8 26.5 5.3 20 13.4 ENE 17 30 9 16 1017.3 1017.0 0.0
30/11:00am 30.2 25.4 4.8 20 13.2 E 19 28 10 15 1017.8 1017.5 0.0
30/10:30am 29.7 24.7 3.6 19 13.3 ENE 19 30 10 16 1018.1 1017.8 0.0
30/10:00am 29.4 24.9 4.1 20 12.9 ENE 17 30 9 16 1018.4 1018.1 0.0
30/09:30am 27.9 23.9 4.9 23 11.8 ENE 15 20 8 11 1018.7 1018.4 0.0
30/09:00am 26.3 22.5 4.1 24 11.1 ENE 13 19 7 10 1018.8 1018.5 0.0
30/08:30am 24.6 19.9 3.3 25 10.4 E 17 22 9 12 1018.5 1018.2 0.0
30/08:00am 23.0 18.6 2.5 26 9.7 E 15 22 8 12 1018.2 1017.9 0.0
30/07:30am 20.4 15.4 1.3 28 8.7 E 17 24 9 13 1018.0 1017.7 0.0
30/07:00am 19.3 14.1 0.4 28 8.4 ESE 17 22 9 12 1017.8 1017.5 0.0
30/06:30am 18.5 13.2 -0.3 28 8.2 ESE 17 22 9 12 1017.7 1017.4 0.0
30/06:00am 18.6 13.4 -0.2 28 8.2 ESE 17 22 9 12 1017.3 1017.0 0.0
30/05:30am 19.2 13.9 -0.7 26 8.6 ESE 17 22 9 12 1016.9 1016.6 0.0
30/05:00am 19.7 14.4 -0.9 25 8.9 ESE 17 24 9 13 1016.6 1016.3 0.0
30/04:30am 20.0 14.2 -1.2 24 9.2 ESE 19 28 10 15 1016.4 1016.1 0.0
30/04:00am 20.1 14.4 -1.1 24 9.2 SE 19 24 10 13 1016.4 1016.1 0.0
30/03:30am 20.0 14.2 -1.2 24 9.2 SE 19 28 10 15 1016.5 1016.2 0.0
30/03:00am 20.2 14.4 -1.6 23 9.4 SE 19 24 10 13 1016.6 1016.3 0.0
30/02:30am 20.4 15.1 -0.8 24 9.3 SE 17 22 9 12 1016.9 1016.6 0.0
30/02:00am 20.9 16.0 -0.4 24 9.4 SE 15 22 8 12 1017.0 1016.7 0.0
30/01:30am 21.0 16.2 0.2 25 9.3 SE 15 20 8 11 1017.2 1016.9 0.0
30/01:00am 21.2 16.4 0.4 25 9.4 SE 15 20 8 11 1017.3 1017.0 0.0
30/12:30am 20.6 16.2 0.4 26 9.1 SE 13 17 7 9 1017.6 1017.3 0.0
30/12:00am 20.5 16.0 -0.2 25 9.2 SE 13 15 7 8 1017.8 1017.5 0.0
 
Date/Time
WST
Temp
°C
App
Temp
°C
Dew
Point
Rel
Hum
%
Delta-T
°C
Wind Press
QNH
hPa
Press
MSL
hPa
Rain
since 9 am
mm
Dir
 
Spd
km/h
Gust
km/h
Spd
kts
Gust
kts
29/11:30pm 22.3 17.5 0.2 23 10.0 SE 15 20 8 11 1017.7 1017.4 0.0
29/11:00pm 22.5 17.7 0.4 23 10.1 SE 15 19 8 10 1017.7 1017.4 0.0
29/10:30pm 22.6 17.8 0.4 23 10.1 SE 15 19 8 10 1017.8 1017.5 0.0
29/10:00pm 23.2 18.4 0.3 22 10.5 ESE 15 19 8 10 1017.8 1017.5 0.0
29/09:30pm 23.5 18.7 -0.1 21 10.7 SE 15 20 8 11 1018.0 1017.7 0.0
29/09:00pm 23.4 19.1 1.1 23 10.4 SE 13 17 7 9 1017.9 1017.6 0.0
29/08:30pm 24.0 19.8 1.6 23 10.6 ESE 13 15 7 8 1017.9 1017.6 0.0
29/08:00pm 25.0 20.8 1.8 22 11.1 ESE 13 19 7 10 1017.7 1017.4 0.0
29/07:30pm 25.1 21.0 2.5 23 10.9 SE 13 17 7 9 1017.4 1017.1 0.0
29/07:00pm 25.0 21.4 3.0 24 10.7 SE 11 13 6 7 1017.0 1016.7 0.0
29/06:30pm 25.4 21.9 3.4 24 10.8 SE 11 13 6 7 1016.7 1016.4 0.0
29/06:00pm 26.8 23.0 4.0 23 11.5 SE 13 15 7 8 1016.3 1016.0 0.0
29/05:30pm 28.0 24.5 3.7 21 12.3 SE 11 15 6 8 1016.0 1015.6 0.0
29/05:00pm 30.0 25.3 3.1 18 13.6 SE 17 30 9 16 1015.9 1015.5 0.0
29/04:30pm 31.0 25.9 3.1 17 14.2 ESE 19 32 10 17 1015.6 1015.2 0.0
29/04:00pm 31.4 26.2 3.4 17 14.3 SE 20 33 11 18 1015.5 1015.1 0.0
29/03:30pm 31.9 26.6 3.0 16 14.7 ESE 20 32 11 17 1015.5 1015.1 0.0
29/03:00pm 32.3 27.1 3.3 16 14.9 ESE 20 33 11 18 1015.5 1015.1 0.0
29/02:30pm 32.3 27.1 3.3 16 14.9 ESE 20 33 11 18 1015.6 1015.2 0.0
29/02:00pm 32.5 28.0 4.3 17 14.7 SE 17 26 9 14 1015.7 1015.3 0.0
29/01:30pm 32.2 27.1 4.1 17 14.6 SSE 20 28 11 15 1016.2 1015.9 0.0
29/01:00pm 31.8 27.0 4.6 18 14.2 E 19 32 10 17 1016.6 1016.3 0.0
29/12:30pm 31.6 26.6 4.4 18 14.2 SE 20 32 11 17 1017.1 1016.8 0.0
29/12:00pm 31.0 25.9 3.9 18 13.9 E 20 32 11 17 1017.5 1017.2 0.0
29/11:30am 30.3 25.2 4.1 19 13.5 E 20 30 11 16 1018.0 1017.7 0.0
29/11:00am 30.3 25.4 4.9 20 13.2 E 20 30 11 16 1018.5 1018.2 0.0
29/10:30am 29.2 24.3 5.3 22 12.5 ENE 20 30 11 16 1018.9 1018.6 0.0
29/10:00am 27.9 21.7 4.2 22 12.0 E 26 35 14 19 1019.4 1019.1 0.0
29/09:30am 27.5 22.1 4.5 23 11.7 ENE 22 33 12 18 1019.6 1019.3 0.0
29/09:00am 26.9 20.6 4.0 23 11.5 ENE 26 37 14 20 1019.7 1019.4 0.0
29/08:30am 25.5 20.2 5.1 27 10.4 E 22 33 12 18 1019.6 1019.3 0.0
29/08:00am 24.2 19.3 5.1 29 9.6 E 20 35 11 19 1019.2 1018.9 0.0
29/07:30am 22.6 17.7 5.1 32 8.7 E 20 30 11 16 1019.0 1018.7 0.0
29/07:00am 20.8 16.0 4.8 35 7.8 E 19 28 10 15 1018.6 1018.3 0.0
29/06:30am 19.7 15.0 5.0 38 7.2 ESE 19 28 10 15 1018.6 1018.3 0.0
29/06:00am 19.6 15.3 5.3 39 7.0 ESE 17 24 9 13 1018.4 1018.1 0.0
29/05:30am 20.0 15.3 5.3 38 7.2 ESE 19 26 10 14 1018.0 1017.7 0.0
29/05:00am 20.4 15.8 5.6 38 7.3 ESE 19 26 10 14 1017.8 1017.5 0.0
29/04:30am 20.5 15.9 5.7 38 7.4 ESE 19 24 10 13 1017.6 1017.3 0.0
29/04:00am 20.9 16.8 6.1 38 7.4 ESE 17 26 9 14 1017.6 1017.3 0.0
29/03:30am 21.4 16.9 6.1 37 7.7 ESE 19 26 10 14 1017.6 1017.3 0.0
29/03:00am 21.6 17.5 6.3 37 7.7 ESE 17 24 9 13 1017.7 1017.4 0.0
29/02:30am 22.3 18.3 6.5 36 8.1 ESE 17 24 9 13 1017.6 1017.3 0.0
29/02:00am 22.6 18.6 6.8 36 8.1 ESE 17 26 9 14 1017.8 1017.5 0.0
29/01:30am 23.0 19.0 6.7 35 8.4 ESE 17 20 9 11 1017.9 1017.6 0.0
29/01:00am 23.4 19.9 7.1 35 8.5 ESE 15 22 8 12 1018.0 1017.7 0.0
29/12:30am 23.7 19.8 6.9 34 8.7 ESE 17 20 9 11 1018.3 1018.0 0.0
29/12:00am 24.1 20.1 6.8 33 9.0 ESE 17 28 9 15 1018.3 1018.0 0.0
 
Date/Time
WST
Temp
°C
App
Temp
°C
Dew
Point
Rel
Hum
%
Delta-T
°C
Wind Press
QNH
hPa
Press
MSL
hPa
Rain
since 9 am
mm
Dir
 
Spd
km/h
Gust
km/h
Spd
kts
Gust
kts
28/11:30pm 24.7 21.1 6.9 32 9.3 ESE 15 22 8 12 1018.4 1018.1 0.0
28/11:00pm 24.0 20.5 7.2 34 8.8 ESE 15 20 8 11 1018.4 1018.1 0.0
28/10:30pm 24.9 21.8 7.1 32 9.4 ESE 13 19 7 10 1018.5 1018.2 0.0
28/10:00pm 25.7 22.2 7.3 31 9.7 ESE 15 20 8 11 1018.5 1018.2 0.0
28/09:30pm 25.2 22.1 7.3 32 9.5 SE 13 19 7 10 1018.4 1018.1 0.0
28/09:00pm 25.1 22.1 7.7 33 9.2 SE 13 20 7 11 1018.4 1018.1 0.0
28/08:30pm 25.4 22.0 7.5 32 9.5 SE 15 19 8 10 1018.4 1018.1 0.0
28/08:00pm 26.1 22.7 7.7 31 9.8 SE 15 19 8 10 1018.2 1017.9 0.0
28/07:30pm 26.5 23.6 8.0 31 10.0 SE 13 19 7 10 1017.9 1017.6 0.0
28/07:00pm 26.9 24.4 8.4 31 10.0 SE 11 15 6 8 1017.6 1017.3 0.0
28/06:30pm 27.3 24.8 8.2 30 10.4 SE 11 15 6 8 1017.2 1016.9 0.0
28/06:00pm 28.1 25.9 7.9 28 10.9 ESE 9 11 5 6 1016.8 1016.5 0.0
28/05:30pm 29.8 27.3 8.2 26 11.9 ESE 11 15 6 8 1016.5 1016.2 0.0
28/05:00pm 31.6 29.0 7.9 23 13.1 ESE 11 15 6 8 1016.2 1015.9 0.0
28/04:30pm 32.6 29.7 8.1 22 13.6 ESE 13 22 7 12 1016.0 1015.6 0.0
28/04:00pm 33.2 29.1 7.9 21 14.1 SE 19 28 10 15 1015.8 1015.4 0.0
28/03:30pm 33.5 29.9 8.2 21 14.2 E 17 24 9 13 1015.7 1015.3 0.0
28/03:00pm 33.5 30.1 7.5 20 14.4 ESE 15 20 8 11 1015.7 1015.3 0.0
28/02:30pm 33.9 30.3 8.5 21 14.3 E 17 30 9 16 1015.9 1015.5 0.0
28/02:00pm 33.2 29.3 7.2 20 14.3 ESE 17 26 9 14 1016.1 1015.7 0.0
28/01:30pm 33.2 29.7 8.6 22 13.8 E 17 28 9 15 1016.5 1016.2 0.0
28/01:00pm 32.9 29.7 8.4 22 13.7 ENE 15 26 8 14 1016.8 1016.5 0.0
28/12:30pm 33.2 29.8 9.3 23 13.6 E 17 26 9 14 1017.4 1017.1 0.0
28/12:00pm 32.2 29.0 8.4 23 13.3 E 15 24 8 13 1018.2 1017.9 0.0
28/11:30am 31.5 27.9 8.5 24 12.8 E 17 26 9 14 1018.7 1018.4 0.0
28/11:00am 31.0 27.5 8.7 25 12.4 E 17 26 9 14 1019.2 1018.9 0.0
28/10:30am 30.1 26.9 8.5 26 12.0 E 15 26 8 14 1019.6 1019.3 0.0
28/10:00am 29.5 25.9 8.5 27 11.6 E 17 26 9 14 1020.0 1019.7 0.0
28/09:30am 28.5 24.9 8.2 28 11.1 ENE 17 26 9 14 1020.3 1020.0 0.0
28/09:00am 27.4 23.8 8.3 30 10.4 E 17 28 9 15 1020.4 1020.1 0.0
28/08:30am 26.2 22.8 9.1 34 9.4 ESE 17 24 9 13 1020.2 1019.9 0.0
28/08:00am 24.9 21.8 8.8 36 8.7 ESE 15 28 8 15 1020.0 1019.7 0.0
28/07:30am 23.4 20.0 9.0 40 7.8 ESE 17 24 9 13 1019.8 1019.5 0.0
28/07:00am 21.9 19.2 8.8 43 7.0 SE 13 19 7 10 1019.5 1019.2 0.0
28/06:30am 21.2 18.0 8.5 44 6.7 SE 15 20 8 11 1019.1 1018.8 0.0
28/06:00am 21.6 18.4 8.5 43 6.9 ESE 15 24 8 13 1018.7 1018.4 0.0
28/05:30am 21.8 18.6 8.3 42 7.1 ESE 15 22 8 12 1018.3 1018.0 0.0
28/05:00am 22.3 18.7 8.4 41 7.3 ESE 17 28 9 15 1017.8 1017.5 0.0
28/04:30am 22.7 19.1 8.4 40 7.6 ESE 17 26 9 14 1017.5 1017.2 0.0
28/04:00am 22.9 19.3 8.2 39 7.8 ESE 17 22 9 12 1017.3 1017.0 0.0
28/03:30am 23.3 19.4 8.6 39 7.9 ESE 19 24 10 13 1017.1 1016.8 0.0
28/03:00am 23.1 19.5 8.4 39 7.8 ESE 17 22 9 12 1016.9 1016.6 0.0
28/02:30am 23.3 19.8 8.6 39 7.9 ESE 17 26 9 14 1016.8 1016.5 0.0
28/02:00am 23.6 20.4 8.5 38 8.1 ESE 15 20 8 11 1016.9 1016.6 0.0
28/01:30am 24.1 20.5 8.5 37 8.4 SE 17 24 9 13 1016.8 1016.5 0.0
28/01:00am 24.9 21.3 8.4 35 8.9 SE 17 24 9 13 1016.9 1016.6 0.0
28/12:30am 25.5 21.9 8.5 34 9.2 ESE 17 26 9 14 1017.1 1016.8 0.0
28/12:00am 26.1 22.2 8.6 33 9.5 SE 19 26 10 14 1017.3 1017.0 0.0
 
Date/Time
WST
Temp
°C
App
Temp
°C
Dew
Point
Rel
Hum
%
Delta-T
°C
Wind Press
QNH
hPa
Press
MSL
hPa
Rain
since 9 am
mm
Dir
 
Spd
km/h
Gust
km/h
Spd
kts
Gust
kts
27/11:30pm 26.3 22.3 8.3 32 9.7 SE 19 28 10 15 1017.6 1017.3 0.0
27/11:00pm 26.2 22.7 8.7 33 9.5 SE 17 24 9 13 1017.8 1017.5 0.0
27/10:30pm 26.3 22.8 8.8 33 9.5 SE 17 22 9 12 1017.8 1017.5 0.0
27/10:00pm 26.1 22.7 9.0 34 9.3 SE 17 22 9 12 1017.8 1017.5 0.0
27/09:30pm 26.4 23.4 9.3 34 9.4 SE 15 19 8 10 1017.8 1017.5 0.0
27/09:00pm 27.1 24.2 9.5 33 9.7 SE 15 20 8 11 1017.7 1017.4 0.0
27/08:30pm 27.3 24.0 9.6 33 9.8 SSE 17 22 9 12 1017.6 1017.3 0.0
27/08:00pm 27.1 24.3 9.9 34 9.6 SSE 15 20 8 11 1017.6 1017.3 0.0
27/07:30pm 27.5 25.1 10.2 34 9.7 SSE 13 17 7 9 1017.3 1017.0 0.0
27/07:00pm 27.8 25.5 10.5 34 9.8 SSE 13 17 7 9 1016.9 1016.6 0.0
27/06:30pm 28.0 26.2 10.7 34 9.8 SSE 11 15 6 8 1016.4 1016.1 0.0
27/06:00pm 28.9 27.0 10.6 32 10.4 SSE 11 15 6 8 1016.1 1015.7 0.0
27/05:30pm 30.6 28.3 10.5 29 11.5 SSE 13 15 7 8 1015.8 1015.4 0.0
27/05:00pm 32.1 29.5 10.7 27 12.4 SE 15 20 8 11 1015.4 1015.0 0.0
27/04:30pm 32.6 29.6 10.6 26 12.7 SE 17 26 9 14 1015.3 1014.9 0.0
27/04:00pm 33.2 30.2 10.5 25 13.2 SE 17 20 9 11 1015.1 1014.7 0.0
27/03:30pm 33.0 30.3 10.4 25 13.1 SE 15 26 8 14 1015.1 1014.7 0.0
27/03:00pm 33.1 30.4 10.4 25 13.1 SE 15 26 8 14 1015.2 1014.8 0.0
27/02:30pm 33.5 30.5 10.8 25 13.2 ESE 17 24 9 13 1015.4 1015.0 0.0
27/02:00pm 33.0 30.5 10.9 26 12.9 ESE 15 30 8 16 1015.4 1015.0 0.0
27/01:30pm 32.5 29.5 10.5 26 12.7 SE 17 26 9 14 1015.8 1015.4 0.0
27/01:00pm 31.6 27.8 9.8 26 12.4 SE 20 30 11 16 1016.3 1016.0 0.0
27/12:30pm 31.5 28.0 10.2 27 12.2 ESE 19 26 10 14 1016.7 1016.4 0.0

Other Formats:

Comma delimited format used in spreadsheet applications
http://www.bom.gov.au/fwo/IDW60801/IDW60801.94204.axf

JavaScript Object Notation format (JSON) in row-major order
http://www.bom.gov.au/fwo/IDW60801/IDW60801.94204.json